sensor_id;sensor_type;location;lat;lon;timestamp;temperature;humidity
8105;DHT22;4095;48.942;9.104;2022-07-05T00:01:52;20.00;95.10
8105;DHT22;4095;48.942;9.104;2022-07-05T00:04:17;19.90;95.10
8105;DHT22;4095;48.942;9.104;2022-07-05T00:06:43;19.90;95.10
8105;DHT22;4095;48.942;9.104;2022-07-05T00:09:32;19.90;95.00
8105;DHT22;4095;48.942;9.104;2022-07-05T00:11:57;19.90;95.30
8105;DHT22;4095;48.942;9.104;2022-07-05T00:14:23;19.90;95.20
8105;DHT22;4095;48.942;9.104;2022-07-05T00:16:49;19.80;95.20
8105;DHT22;4095;48.942;9.104;2022-07-05T00:19:15;19.80;95.20
8105;DHT22;4095;48.942;9.104;2022-07-05T00:21:41;19.80;95.30
8105;DHT22;4095;48.942;9.104;2022-07-05T00:24:06;19.80;95.40
8105;DHT22;4095;48.942;9.104;2022-07-05T00:26:32;19.70;95.40
8105;DHT22;4095;48.942;9.104;2022-07-05T00:28:58;19.70;95.50
8105;DHT22;4095;48.942;9.104;2022-07-05T00:31:23;19.70;95.60
8105;DHT22;4095;48.942;9.104;2022-07-05T00:33:49;19.60;95.40
8105;DHT22;4095;48.942;9.104;2022-07-05T00:36:14;19.60;95.10
8105;DHT22;4095;48.942;9.104;2022-07-05T00:38:40;19.60;95.40
8105;DHT22;4095;48.942;9.104;2022-07-05T00:41:06;19.50;95.40
8105;DHT22;4095;48.942;9.104;2022-07-05T00:43:31;19.40;95.30
8105;DHT22;4095;48.942;9.104;2022-07-05T00:45:57;19.30;95.30
8105;DHT22;4095;48.942;9.104;2022-07-05T00:48:23;19.30;95.20
8105;DHT22;4095;48.942;9.104;2022-07-05T00:50:50;19.20;95.20
8105;DHT22;4095;48.942;9.104;2022-07-05T00:53:15;19.20;95.20
8105;DHT22;4095;48.942;9.104;2022-07-05T00:55:45;19.20;95.30
8105;DHT22;4095;48.942;9.104;2022-07-05T00:58:11;19.10;95.40
8105;DHT22;4095;48.942;9.104;2022-07-05T01:00:37;19.10;95.30
8105;DHT22;4095;48.942;9.104;2022-07-05T01:03:03;19.10;95.50
8105;DHT22;4095;48.942;9.104;2022-07-05T01:05:31;19.00;95.50
8105;DHT22;4095;48.942;9.104;2022-07-05T01:07:59;19.00;95.60
8105;DHT22;4095;48.942;9.104;2022-07-05T01:10:25;19.00;95.60
8105;DHT22;4095;48.942;9.104;2022-07-05T01:12:51;19.00;95.80
8105;DHT22;4095;48.942;9.104;2022-07-05T01:15:17;19.00;95.90
8105;DHT22;4095;48.942;9.104;2022-07-05T01:17:45;19.00;95.90
8105;DHT22;4095;48.942;9.104;2022-07-05T01:20:11;18.90;95.90
8105;DHT22;4095;48.942;9.104;2022-07-05T01:22:54;19.00;95.90
8105;DHT22;4095;48.942;9.104;2022-07-05T01:25:21;19.00;95.90
8105;DHT22;4095;48.942;9.104;2022-07-05T01:27:48;19.00;95.90
8105;DHT22;4095;48.942;9.104;2022-07-05T01:30:15;18.90;96.20
8105;DHT22;4095;48.942;9.104;2022-07-05T01:32:41;18.90;95.90
8105;DHT22;4095;48.942;9.104;2022-07-05T01:35:11;18.90;96.00
8105;DHT22;4095;48.942;9.104;2022-07-05T01:37:37;18.80;95.90
8105;DHT22;4095;48.942;9.104;2022-07-05T01:40:04;18.80;95.80
8105;DHT22;4095;48.942;9.104;2022-07-05T01:42:30;18.80;95.70
8105;DHT22;4095;48.942;9.104;2022-07-05T01:44:55;18.60;95.40
8105;DHT22;4095;48.942;9.104;2022-07-05T01:47:21;18.50;95.40
8105;DHT22;4095;48.942;9.104;2022-07-05T01:49:51;18.50;95.60
8105;DHT22;4095;48.942;9.104;2022-07-05T01:52:20;18.40;95.70
8105;DHT22;4095;48.942;9.104;2022-07-05T01:54:46;18.40;95.70
8105;DHT22;4095;48.942;9.104;2022-07-05T01:57:12;18.40;95.80
8105;DHT22;4095;48.942;9.104;2022-07-05T01:59:38;18.40;95.90
8105;DHT22;4095;48.942;9.104;2022-07-05T02:02:07;18.40;96.00
8105;DHT22;4095;48.942;9.104;2022-07-05T02:04:36;18.30;95.90
8105;DHT22;4095;48.942;9.104;2022-07-05T02:07:06;18.30;96.10
8105;DHT22;4095;48.942;9.104;2022-07-05T02:09:32;18.30;96.10
8105;DHT22;4095;48.942;9.104;2022-07-05T02:11:58;18.30;96.10
8105;DHT22;4095;48.942;9.104;2022-07-05T02:14:24;18.30;96.20
8105;DHT22;4095;48.942;9.104;2022-07-05T02:16:50;18.30;96.30
8105;DHT22;4095;48.942;9.104;2022-07-05T02:19:15;18.30;96.40
8105;DHT22;4095;48.942;9.104;2022-07-05T02:21:41;18.30;96.30
8105;DHT22;4095;48.942;9.104;2022-07-05T02:24:07;18.20;96.40
8105;DHT22;4095;48.942;9.104;2022-07-05T02:26:33;18.20;96.10
8105;DHT22;4095;48.942;9.104;2022-07-05T02:28:59;18.10;95.80
8105;DHT22;4095;48.942;9.104;2022-07-05T02:31:25;18.10;95.70
8105;DHT22;4095;48.942;9.104;2022-07-05T02:33:51;18.00;95.60
8105;DHT22;4095;48.942;9.104;2022-07-05T02:36:18;18.00;95.60
8105;DHT22;4095;48.942;9.104;2022-07-05T02:38:43;17.90;95.70
8105;DHT22;4095;48.942;9.104;2022-07-05T02:41:10;18.00;95.80
8105;DHT22;4095;48.942;9.104;2022-07-05T02:43:37;17.90;95.80
8105;DHT22;4095;48.942;9.104;2022-07-05T02:46:03;17.90;95.90
8105;DHT22;4095;48.942;9.104;2022-07-05T02:48:29;17.90;95.90
8105;DHT22;4095;48.942;9.104;2022-07-05T02:50:55;17.90;95.90
8105;DHT22;4095;48.942;9.104;2022-07-05T02:53:21;17.80;95.90
8105;DHT22;4095;48.942;9.104;2022-07-05T02:55:47;17.80;95.90
8105;DHT22;4095;48.942;9.104;2022-07-05T02:58:12;17.80;95.90
8105;DHT22;4095;48.942;9.104;2022-07-05T03:00:38;17.80;96.00
8105;DHT22;4095;48.942;9.104;2022-07-05T03:03:04;17.80;96.20
8105;DHT22;4095;48.942;9.104;2022-07-05T03:05:29;17.80;96.30
8105;DHT22;4095;48.942;9.104;2022-07-05T03:07:55;17.70;96.00
8105;DHT22;4095;48.942;9.104;2022-07-05T03:10:20;17.60;95.90
8105;DHT22;4095;48.942;9.104;2022-07-05T03:12:46;17.60;96.00
8105;DHT22;4095;48.942;9.104;2022-07-05T03:15:11;17.60;96.00
8105;DHT22;4095;48.942;9.104;2022-07-05T03:17:37;17.60;96.30
8105;DHT22;4095;48.942;9.104;2022-07-05T03:20:03;17.60;96.40
8105;DHT22;4095;48.942;9.104;2022-07-05T03:22:29;17.60;96.40
8105;DHT22;4095;48.942;9.104;2022-07-05T03:24:54;17.60;96.60
8105;DHT22;4095;48.942;9.104;2022-07-05T03:27:20;17.60;96.70
8105;DHT22;4095;48.942;9.104;2022-07-05T03:29:45;17.60;96.70
8105;DHT22;4095;48.942;9.104;2022-07-05T03:32:11;17.60;96.60
8105;DHT22;4095;48.942;9.104;2022-07-05T03:34:36;17.60;96.70
8105;DHT22;4095;48.942;9.104;2022-07-05T03:37:03;17.60;96.50
8105;DHT22;4095;48.942;9.104;2022-07-05T03:39:29;17.60;96.70
8105;DHT22;4095;48.942;9.104;2022-07-05T03:41:54;17.60;96.70
8105;DHT22;4095;48.942;9.104;2022-07-05T03:44:20;17.50;96.70
8105;DHT22;4095;48.942;9.104;2022-07-05T03:46:46;17.50;96.70
8105;DHT22;4095;48.942;9.104;2022-07-05T03:49:11;17.50;96.60
8105;DHT22;4095;48.942;9.104;2022-07-05T03:51:37;17.50;96.60
8105;DHT22;4095;48.942;9.104;2022-07-05T03:54:02;17.50;96.60
8105;DHT22;4095;48.942;9.104;2022-07-05T03:56:29;17.50;96.70
8105;DHT22;4095;48.942;9.104;2022-07-05T03:58:55;17.50;96.70
8105;DHT22;4095;48.942;9.104;2022-07-05T04:01:21;17.50;96.70
8105;DHT22;4095;48.942;9.104;2022-07-05T04:03:47;17.50;96.60
8105;DHT22;4095;48.942;9.104;2022-07-05T04:06:13;17.50;96.40
8105;DHT22;4095;48.942;9.104;2022-07-05T04:08:39;17.60;96.50
8105;DHT22;4095;48.942;9.104;2022-07-05T04:11:05;17.50;96.40
8105;DHT22;4095;48.942;9.104;2022-07-05T04:13:31;17.60;96.30
8105;DHT22;4095;48.942;9.104;2022-07-05T04:15:57;17.60;96.40
8105;DHT22;4095;48.942;9.104;2022-07-05T04:18:22;17.60;96.10
8105;DHT22;4095;48.942;9.104;2022-07-05T04:20:48;17.60;96.20
8105;DHT22;4095;48.942;9.104;2022-07-05T04:23:14;17.60;96.30
8105;DHT22;4095;48.942;9.104;2022-07-05T04:25:39;17.70;96.40
8105;DHT22;4095;48.942;9.104;2022-07-05T04:28:05;17.70;96.50
8105;DHT22;4095;48.942;9.104;2022-07-05T04:30:31;17.80;96.30
8105;DHT22;4095;48.942;9.104;2022-07-05T04:32:57;17.70;96.20
8105;DHT22;4095;48.942;9.104;2022-07-05T04:35:23;17.80;96.30
8105;DHT22;4095;48.942;9.104;2022-07-05T04:37:49;17.90;96.20
8105;DHT22;4095;48.942;9.104;2022-07-05T04:40:15;17.80;96.20
8105;DHT22;4095;48.942;9.104;2022-07-05T04:42:41;17.90;96.10
8105;DHT22;4095;48.942;9.104;2022-07-05T04:45:08;17.90;96.20
8105;DHT22;4095;48.942;9.104;2022-07-05T04:47:34;18.00;96.30
8105;DHT22;4095;48.942;9.104;2022-07-05T04:50:01;18.00;96.00
8105;DHT22;4095;48.942;9.104;2022-07-05T04:52:27;17.90;96.00
8105;DHT22;4095;48.942;9.104;2022-07-05T04:54:53;18.00;96.10
8105;DHT22;4095;48.942;9.104;2022-07-05T04:57:18;18.10;96.20
8105;DHT22;4095;48.942;9.104;2022-07-05T04:59:44;18.10;96.20
8105;DHT22;4095;48.942;9.104;2022-07-05T05:02:10;18.20;95.90
8105;DHT22;4095;48.942;9.104;2022-07-05T05:04:36;18.20;96.10
8105;DHT22;4095;48.942;9.104;2022-07-05T05:07:01;18.20;95.80
8105;DHT22;4095;48.942;9.104;2022-07-05T05:09:27;18.30;95.80
8105;DHT22;4095;48.942;9.104;2022-07-05T05:11:53;18.40;95.60
8105;DHT22;4095;48.942;9.104;2022-07-05T05:14:18;18.40;95.20
8105;DHT22;4095;48.942;9.104;2022-07-05T05:16:44;18.50;95.50
8105;DHT22;4095;48.942;9.104;2022-07-05T05:19:09;18.50;95.30
8105;DHT22;4095;48.942;9.104;2022-07-05T05:21:35;18.60;95.10
8105;DHT22;4095;48.942;9.104;2022-07-05T05:24:00;18.70;95.20
8105;DHT22;4095;48.942;9.104;2022-07-05T05:26:26;18.70;95.00
8105;DHT22;4095;48.942;9.104;2022-07-05T05:28:52;18.70;95.10
8105;DHT22;4095;48.942;9.104;2022-07-05T05:31:18;18.70;94.90
8105;DHT22;4095;48.942;9.104;2022-07-05T05:33:44;18.80;95.10
8105;DHT22;4095;48.942;9.104;2022-07-05T05:36:10;18.90;95.00
8105;DHT22;4095;48.942;9.104;2022-07-05T05:38:36;19.00;95.00
8105;DHT22;4095;48.942;9.104;2022-07-05T05:41:02;19.00;94.70
8105;DHT22;4095;48.942;9.104;2022-07-05T05:43:27;19.10;94.60
8105;DHT22;4095;48.942;9.104;2022-07-05T05:45:53;19.10;94.90
8105;DHT22;4095;48.942;9.104;2022-07-05T05:48:18;19.20;95.10
8105;DHT22;4095;48.942;9.104;2022-07-05T05:50:46;19.30;95.20
8105;DHT22;4095;48.942;9.104;2022-07-05T05:53:12;19.40;95.00
8105;DHT22;4095;48.942;9.104;2022-07-05T05:55:38;19.40;94.70
8105;DHT22;4095;48.942;9.104;2022-07-05T06:00:37;19.50;94.40
8105;DHT22;4095;48.942;9.104;2022-07-05T06:03:02;19.60;94.10
8105;DHT22;4095;48.942;9.104;2022-07-05T06:05:28;19.70;93.90
8105;DHT22;4095;48.942;9.104;2022-07-05T06:07:55;19.70;93.60
8105;DHT22;4095;48.942;9.104;2022-07-05T06:10:23;19.70;93.80
8105;DHT22;4095;48.942;9.104;2022-07-05T06:12:51;19.80;93.70
8105;DHT22;4095;48.942;9.104;2022-07-05T06:15:17;19.90;93.90
8105;DHT22;4095;48.942;9.104;2022-07-05T06:17:43;20.00;93.70
8105;DHT22;4095;48.942;9.104;2022-07-05T06:20:11;20.00;93.70
8105;DHT22;4095;48.942;9.104;2022-07-05T06:22:37;20.10;93.70
8105;DHT22;4095;48.942;9.104;2022-07-05T06:25:03;20.20;93.80
8105;DHT22;4095;48.942;9.104;2022-07-05T06:27:29;20.20;93.80
8105;DHT22;4095;48.942;9.104;2022-07-05T06:29:55;20.30;93.70
8105;DHT22;4095;48.942;9.104;2022-07-05T06:32:21;20.40;93.50
8105;DHT22;4095;48.942;9.104;2022-07-05T06:34:47;20.50;93.50
8105;DHT22;4095;48.942;9.104;2022-07-05T06:37:13;20.60;93.40
8105;DHT22;4095;48.942;9.104;2022-07-05T06:39:38;20.70;93.60
8105;DHT22;4095;48.942;9.104;2022-07-05T06:42:04;20.70;93.40
8105;DHT22;4095;48.942;9.104;2022-07-05T06:44:30;20.90;93.40
8105;DHT22;4095;48.942;9.104;2022-07-05T06:46:55;20.90;92.70
8105;DHT22;4095;48.942;9.104;2022-07-05T06:49:21;21.00;92.60
8105;DHT22;4095;48.942;9.104;2022-07-05T06:51:47;21.00;93.10
8105;DHT22;4095;48.942;9.104;2022-07-05T06:54:12;21.20;92.10
8105;DHT22;4095;48.942;9.104;2022-07-05T06:56:38;21.20;91.70
8105;DHT22;4095;48.942;9.104;2022-07-05T06:59:04;21.20;91.90
8105;DHT22;4095;48.942;9.104;2022-07-05T07:01:29;21.30;92.20
8105;DHT22;4095;48.942;9.104;2022-07-05T07:03:55;21.40;91.90
8105;DHT22;4095;48.942;9.104;2022-07-05T07:06:21;21.50;91.70
8105;DHT22;4095;48.942;9.104;2022-07-05T07:08:47;21.60;92.30
8105;DHT22;4095;48.942;9.104;2022-07-05T07:11:31;21.60;92.30
8105;DHT22;4095;48.942;9.104;2022-07-05T07:13:57;21.80;92.20
8105;DHT22;4095;48.942;9.104;2022-07-05T07:16:23;21.90;91.90
8105;DHT22;4095;48.942;9.104;2022-07-05T07:18:48;21.90;91.10
8105;DHT22;4095;48.942;9.104;2022-07-05T07:21:14;22.00;91.60
8105;DHT22;4095;48.942;9.104;2022-07-05T07:23:40;22.10;91.60
8105;DHT22;4095;48.942;9.104;2022-07-05T07:26:05;22.10;91.10
8105;DHT22;4095;48.942;9.104;2022-07-05T07:28:31;22.10;91.10
8105;DHT22;4095;48.942;9.104;2022-07-05T07:30:56;22.20;90.50
8105;DHT22;4095;48.942;9.104;2022-07-05T07:33:22;22.30;90.20
8105;DHT22;4095;48.942;9.104;2022-07-05T07:35:48;22.40;91.10
8105;DHT22;4095;48.942;9.104;2022-07-05T07:38:13;22.50;90.40
8105;DHT22;4095;48.942;9.104;2022-07-05T07:40:39;22.50;90.80
8105;DHT22;4095;48.942;9.104;2022-07-05T07:43:04;22.70;90.90
8105;DHT22;4095;48.942;9.104;2022-07-05T07:45:30;22.80;90.80
8105;DHT22;4095;48.942;9.104;2022-07-05T07:47:56;22.90;91.10
8105;DHT22;4095;48.942;9.104;2022-07-05T07:50:22;23.00;88.20
8105;DHT22;4095;48.942;9.104;2022-07-05T07:52:47;23.00;88.10
8105;DHT22;4095;48.942;9.104;2022-07-05T07:55:13;23.10;87.10
8105;DHT22;4095;48.942;9.104;2022-07-05T07:57:40;23.20;87.40
8105;DHT22;4095;48.942;9.104;2022-07-05T08:00:06;23.30;89.80
8105;DHT22;4095;48.942;9.104;2022-07-05T08:02:32;23.40;88.80
8105;DHT22;4095;48.942;9.104;2022-07-05T08:04:57;23.50;87.50
8105;DHT22;4095;48.942;9.104;2022-07-05T08:07:24;23.60;89.00
8105;DHT22;4095;48.942;9.104;2022-07-05T08:09:49;23.70;87.60
8105;DHT22;4095;48.942;9.104;2022-07-05T08:12:15;23.80;88.60
8105;DHT22;4095;48.942;9.104;2022-07-05T08:14:41;23.90;86.00
8105;DHT22;4095;48.942;9.104;2022-07-05T08:17:07;23.90;86.30
8105;DHT22;4095;48.942;9.104;2022-07-05T08:19:34;23.90;83.90
8105;DHT22;4095;48.942;9.104;2022-07-05T08:22:18;24.00;84.50
8105;DHT22;4095;48.942;9.104;2022-07-05T08:24:45;24.10;85.70
8105;DHT22;4095;48.942;9.104;2022-07-05T08:27:11;24.10;86.60
8105;DHT22;4095;48.942;9.104;2022-07-05T08:29:37;24.10;88.10
8105;DHT22;4095;48.942;9.104;2022-07-05T08:32:02;24.20;87.70
8105;DHT22;4095;48.942;9.104;2022-07-05T08:34:28;24.30;88.10
8105;DHT22;4095;48.942;9.104;2022-07-05T08:36:54;24.40;89.80
8105;DHT22;4095;48.942;9.104;2022-07-05T08:39:20;24.40;86.30
8105;DHT22;4095;48.942;9.104;2022-07-05T08:41:50;24.50;87.60
8105;DHT22;4095;48.942;9.104;2022-07-05T08:44:19;24.50;85.50
8105;DHT22;4095;48.942;9.104;2022-07-05T08:46:45;24.60;84.90
8105;DHT22;4095;48.942;9.104;2022-07-05T08:49:13;24.60;85.40
8105;DHT22;4095;48.942;9.104;2022-07-05T08:51:41;24.70;82.30
8105;DHT22;4095;48.942;9.104;2022-07-05T08:54:09;24.70;81.80
8105;DHT22;4095;48.942;9.104;2022-07-05T08:56:36;24.70;80.50
8105;DHT22;4095;48.942;9.104;2022-07-05T08:59:03;24.80;80.10
8105;DHT22;4095;48.942;9.104;2022-07-05T09:01:28;24.90;80.90
8105;DHT22;4095;48.942;9.104;2022-07-05T09:04:01;25.00;79.00
8105;DHT22;4095;48.942;9.104;2022-07-05T09:06:28;25.00;77.40
8105;DHT22;4095;48.942;9.104;2022-07-05T09:08:55;25.00;77.40
8105;DHT22;4095;48.942;9.104;2022-07-05T09:11:33;25.10;78.70
8105;DHT22;4095;48.942;9.104;2022-07-05T09:14:01;25.20;78.90
8105;DHT22;4095;48.942;9.104;2022-07-05T09:16:27;25.30;79.40
8105;DHT22;4095;48.942;9.104;2022-07-05T09:18:54;25.40;79.60
8105;DHT22;4095;48.942;9.104;2022-07-05T09:21:27;25.40;79.00
8105;DHT22;4095;48.942;9.104;2022-07-05T09:23:56;25.50;78.40
8105;DHT22;4095;48.942;9.104;2022-07-05T09:26:37;25.60;77.20
8105;DHT22;4095;48.942;9.104;2022-07-05T09:29:08;25.60;77.50
8105;DHT22;4095;48.942;9.104;2022-07-05T09:31:47;25.70;77.30
8105;DHT22;4095;48.942;9.104;2022-07-05T09:34:18;25.70;78.10
8105;DHT22;4095;48.942;9.104;2022-07-05T09:36:50;25.80;78.20
8105;DHT22;4095;48.942;9.104;2022-07-05T09:39:16;25.90;79.20
8105;DHT22;4095;48.942;9.104;2022-07-05T09:41:42;26.00;76.20
8105;DHT22;4095;48.942;9.104;2022-07-05T09:44:08;26.10;77.30
8105;DHT22;4095;48.942;9.104;2022-07-05T09:46:33;26.10;73.20
8105;DHT22;4095;48.942;9.104;2022-07-05T09:48:59;26.20;76.80
8105;DHT22;4095;48.942;9.104;2022-07-05T09:51:25;26.30;76.80
8105;DHT22;4095;48.942;9.104;2022-07-05T09:53:56;26.40;78.40
8105;DHT22;4095;48.942;9.104;2022-07-05T09:56:22;26.40;74.60
8105;DHT22;4095;48.942;9.104;2022-07-05T09:58:49;26.40;73.50
8105;DHT22;4095;48.942;9.104;2022-07-05T10:01:28;26.40;73.20
8105;DHT22;4095;48.942;9.104;2022-07-05T10:03:55;26.50;72.00
8105;DHT22;4095;48.942;9.104;2022-07-05T10:06:26;26.50;70.50
8105;DHT22;4095;48.942;9.104;2022-07-05T10:08:55;26.50;71.40
8105;DHT22;4095;48.942;9.104;2022-07-05T10:11:22;26.60;70.90
8105;DHT22;4095;48.942;9.104;2022-07-05T10:13:50;26.70;73.70
8105;DHT22;4095;48.942;9.104;2022-07-05T10:16:17;26.70;70.60
8105;DHT22;4095;48.942;9.104;2022-07-05T10:18:47;26.80;73.30
8105;DHT22;4095;48.942;9.104;2022-07-05T10:21:16;26.90;73.10
8105;DHT22;4095;48.942;9.104;2022-07-05T10:23:44;27.00;74.10
8105;DHT22;4095;48.942;9.104;2022-07-05T10:26:15;27.10;73.80
8105;DHT22;4095;48.942;9.104;2022-07-05T10:28:45;27.20;73.60
8105;DHT22;4095;48.942;9.104;2022-07-05T10:31:12;27.30;71.10
8105;DHT22;4095;48.942;9.104;2022-07-05T10:33:38;27.40;70.30
8105;DHT22;4095;48.942;9.104;2022-07-05T10:36:04;27.50;71.70
8105;DHT22;4095;48.942;9.104;2022-07-05T10:38:35;27.60;72.10
8105;DHT22;4095;48.942;9.104;2022-07-05T10:41:03;27.80;72.20
8105;DHT22;4095;48.942;9.104;2022-07-05T10:43:30;27.90;72.10
8105;DHT22;4095;48.942;9.104;2022-07-05T10:45:56;28.00;74.00
8105;DHT22;4095;48.942;9.104;2022-07-05T10:48:25;28.10;70.70
8105;DHT22;4095;48.942;9.104;2022-07-05T10:50:56;28.20;70.00
8105;DHT22;4095;48.942;9.104;2022-07-05T10:53:24;28.10;69.10
8105;DHT22;4095;48.942;9.104;2022-07-05T10:55:55;28.10;70.50
8105;DHT22;4095;48.942;9.104;2022-07-05T10:58:29;28.10;67.50
8105;DHT22;4095;48.942;9.104;2022-07-05T11:04:23;28.30;70.50
8105;DHT22;4095;48.942;9.104;2022-07-05T11:06:49;28.20;68.80
8105;DHT22;4095;48.942;9.104;2022-07-05T11:09:18;28.20;71.60
8105;DHT22;4095;48.942;9.104;2022-07-05T11:12:01;28.30;69.60
8105;DHT22;4095;48.942;9.104;2022-07-05T11:17:17;28.40;68.30
8105;DHT22;4095;48.942;9.104;2022-07-05T11:20:15;28.40;69.20
8105;DHT22;4095;48.942;9.104;2022-07-05T11:25:29;28.60;66.60
8105;DHT22;4095;48.942;9.104;2022-07-05T11:28:06;28.40;66.80
8105;DHT22;4095;48.942;9.104;2022-07-05T11:30:55;28.30;66.40
8105;DHT22;4095;48.942;9.104;2022-07-05T11:36:04;28.50;67.80
8105;DHT22;4095;48.942;9.104;2022-07-05T11:38:32;28.50;67.60
8105;DHT22;4095;48.942;9.104;2022-07-05T11:41:13;28.50;66.10
8105;DHT22;4095;48.942;9.104;2022-07-05T11:43:40;28.50;66.80
8105;DHT22;4095;48.942;9.104;2022-07-05T11:46:06;28.40;66.20
8105;DHT22;4095;48.942;9.104;2022-07-05T11:48:32;28.40;63.60
8105;DHT22;4095;48.942;9.104;2022-07-05T11:50:57;28.40;68.30
8105;DHT22;4095;48.942;9.104;2022-07-05T11:53:29;28.30;66.10
8105;DHT22;4095;48.942;9.104;2022-07-05T11:55:58;28.40;65.10
8105;DHT22;4095;48.942;9.104;2022-07-05T11:58:32;28.40;67.50
8105;DHT22;4095;48.942;9.104;2022-07-05T12:01:01;28.40;68.40
8105;DHT22;4095;48.942;9.104;2022-07-05T12:03:27;28.50;68.70
8105;DHT22;4095;48.942;9.104;2022-07-05T12:05:53;28.50;67.40
8105;DHT22;4095;48.942;9.104;2022-07-05T12:08:22;28.50;66.30
8105;DHT22;4095;48.942;9.104;2022-07-05T12:10:49;28.40;66.00
8105;DHT22;4095;48.942;9.104;2022-07-05T12:13:44;28.40;66.00
8105;DHT22;4095;48.942;9.104;2022-07-05T12:16:11;28.40;65.40
8105;DHT22;4095;48.942;9.104;2022-07-05T12:18:52;28.40;66.20
8105;DHT22;4095;48.942;9.104;2022-07-05T12:21:18;28.40;65.40
8105;DHT22;4095;48.942;9.104;2022-07-05T12:23:48;28.40;66.50
8105;DHT22;4095;48.942;9.104;2022-07-05T12:26:18;28.40;67.90
8105;DHT22;4095;48.942;9.104;2022-07-05T12:28:44;28.40;66.80
8105;DHT22;4095;48.942;9.104;2022-07-05T12:31:22;28.40;65.40
8105;DHT22;4095;48.942;9.104;2022-07-05T12:33:49;28.40;66.90
8105;DHT22;4095;48.942;9.104;2022-07-05T12:36:17;28.40;65.50
8105;DHT22;4095;48.942;9.104;2022-07-05T12:38:43;28.40;67.30
8105;DHT22;4095;48.942;9.104;2022-07-05T12:41:09;28.40;66.90
8105;DHT22;4095;48.942;9.104;2022-07-05T12:44:01;28.30;61.80
8105;DHT22;4095;48.942;9.104;2022-07-05T12:46:37;28.30;62.40
8105;DHT22;4095;48.942;9.104;2022-07-05T12:49:03;28.40;61.10
8105;DHT22;4095;48.942;9.104;2022-07-05T12:51:34;28.40;65.50
8105;DHT22;4095;48.942;9.104;2022-07-05T12:54:00;28.40;64.40
8105;DHT22;4095;48.942;9.104;2022-07-05T12:56:53;28.40;63.60
8105;DHT22;4095;48.942;9.104;2022-07-05T12:59:37;28.40;64.20
8105;DHT22;4095;48.942;9.104;2022-07-05T13:02:04;28.30;64.10
8105;DHT22;4095;48.942;9.104;2022-07-05T13:04:30;28.30;62.70
8105;DHT22;4095;48.942;9.104;2022-07-05T13:07:00;28.30;63.00
8105;DHT22;4095;48.942;9.104;2022-07-05T13:12:20;28.20;61.90
8105;DHT22;4095;48.942;9.104;2022-07-05T13:14:51;28.30;63.80
8105;DHT22;4095;48.942;9.104;2022-07-05T13:17:23;28.30;65.20
8105;DHT22;4095;48.942;9.104;2022-07-05T13:19:52;28.20;65.30
8105;DHT22;4095;48.942;9.104;2022-07-05T13:22:18;28.20;63.90
8105;DHT22;4095;48.942;9.104;2022-07-05T13:24:44;28.10;61.40
8105;DHT22;4095;48.942;9.104;2022-07-05T13:27:11;28.10;62.30
8105;DHT22;4095;48.942;9.104;2022-07-05T13:29:38;28.10;63.50
8105;DHT22;4095;48.942;9.104;2022-07-05T13:32:04;28.00;63.70
8105;DHT22;4095;48.942;9.104;2022-07-05T13:34:30;28.00;62.50
8105;DHT22;4095;48.942;9.104;2022-07-05T13:36:57;27.90;62.10
8105;DHT22;4095;48.942;9.104;2022-07-05T13:39:23;27.90;61.80
8105;DHT22;4095;48.942;9.104;2022-07-05T13:41:51;27.90;60.70
8105;DHT22;4095;48.942;9.104;2022-07-05T13:44:18;27.80;58.40
8105;DHT22;4095;48.942;9.104;2022-07-05T13:46:43;27.70;61.70
8105;DHT22;4095;48.942;9.104;2022-07-05T13:49:10;27.70;62.40
8105;DHT22;4095;48.942;9.104;2022-07-05T13:51:36;27.70;61.10
8105;DHT22;4095;48.942;9.104;2022-07-05T13:54:02;27.60;60.20
8105;DHT22;4095;48.942;9.104;2022-07-05T13:56:28;27.60;61.30
8105;DHT22;4095;48.942;9.104;2022-07-05T13:58:55;27.60;61.60
8105;DHT22;4095;48.942;9.104;2022-07-05T14:01:21;27.60;63.10
8105;DHT22;4095;48.942;9.104;2022-07-05T14:03:52;27.60;65.00
8105;DHT22;4095;48.942;9.104;2022-07-05T14:06:18;27.60;64.00
8105;DHT22;4095;48.942;9.104;2022-07-05T14:08:43;27.60;62.10
8105;DHT22;4095;48.942;9.104;2022-07-05T14:11:10;27.60;63.00
8105;DHT22;4095;48.942;9.104;2022-07-05T14:13:36;27.50;63.50
8105;DHT22;4095;48.942;9.104;2022-07-05T14:16:02;27.50;63.20
8105;DHT22;4095;48.942;9.104;2022-07-05T14:18:28;27.60;63.90
8105;DHT22;4095;48.942;9.104;2022-07-05T14:20:53;27.60;64.60
8105;DHT22;4095;48.942;9.104;2022-07-05T14:23:19;27.60;63.30
8105;DHT22;4095;48.942;9.104;2022-07-05T14:25:45;27.60;64.80
8105;DHT22;4095;48.942;9.104;2022-07-05T14:28:11;27.60;61.30
8105;DHT22;4095;48.942;9.104;2022-07-05T14:30:38;27.60;60.50
8105;DHT22;4095;48.942;9.104;2022-07-05T14:33:05;27.60;62.40
8105;DHT22;4095;48.942;9.104;2022-07-05T14:35:31;27.60;61.70
8105;DHT22;4095;48.942;9.104;2022-07-05T14:37:57;27.50;62.30
8105;DHT22;4095;48.942;9.104;2022-07-05T14:40:23;27.50;62.70
8105;DHT22;4095;48.942;9.104;2022-07-05T14:42:50;27.50;62.10
8105;DHT22;4095;48.942;9.104;2022-07-05T14:45:16;27.50;66.00
8105;DHT22;4095;48.942;9.104;2022-07-05T14:47:41;27.40;65.60
8105;DHT22;4095;48.942;9.104;2022-07-05T14:50:07;27.40;64.70
8105;DHT22;4095;48.942;9.104;2022-07-05T14:52:33;27.50;68.00
8105;DHT22;4095;48.942;9.104;2022-07-05T14:54:58;27.50;62.60
8105;DHT22;4095;48.942;9.104;2022-07-05T14:57:24;27.40;63.30
8105;DHT22;4095;48.942;9.104;2022-07-05T14:59:49;27.40;61.70
8105;DHT22;4095;48.942;9.104;2022-07-05T15:02:15;27.40;60.10
8105;DHT22;4095;48.942;9.104;2022-07-05T15:04:41;27.40;60.80
8105;DHT22;4095;48.942;9.104;2022-07-05T15:07:07;27.40;60.70
8105;DHT22;4095;48.942;9.104;2022-07-05T15:09:32;27.40;61.20
8105;DHT22;4095;48.942;9.104;2022-07-05T15:11:58;27.40;62.80
8105;DHT22;4095;48.942;9.104;2022-07-05T15:14:24;27.40;61.70
8105;DHT22;4095;48.942;9.104;2022-07-05T15:16:53;27.40;62.30
8105;DHT22;4095;48.942;9.104;2022-07-05T15:19:19;27.40;60.70
8105;DHT22;4095;48.942;9.104;2022-07-05T15:21:44;27.40;61.80
8105;DHT22;4095;48.942;9.104;2022-07-05T15:24:10;27.30;62.30
8105;DHT22;4095;48.942;9.104;2022-07-05T15:26:36;27.30;63.10
8105;DHT22;4095;48.942;9.104;2022-07-05T15:29:03;27.40;62.20
8105;DHT22;4095;48.942;9.104;2022-07-05T15:31:33;27.40;62.00
8105;DHT22;4095;48.942;9.104;2022-07-05T15:34:01;27.50;62.70
8105;DHT22;4095;48.942;9.104;2022-07-05T15:36:26;27.40;63.80
8105;DHT22;4095;48.942;9.104;2022-07-05T15:38:53;27.40;62.70
8105;DHT22;4095;48.942;9.104;2022-07-05T15:41:19;27.40;60.40
8105;DHT22;4095;48.942;9.104;2022-07-05T15:43:44;27.40;62.10
8105;DHT22;4095;48.942;9.104;2022-07-05T15:46:10;27.50;61.30
8105;DHT22;4095;48.942;9.104;2022-07-05T15:48:36;27.50;59.20
8105;DHT22;4095;48.942;9.104;2022-07-05T15:51:02;27.50;61.10
8105;DHT22;4095;48.942;9.104;2022-07-05T15:53:30;27.50;62.80
8105;DHT22;4095;48.942;9.104;2022-07-05T15:55:56;27.50;59.10
8105;DHT22;4095;48.942;9.104;2022-07-05T15:58:32;27.50;62.40
8105;DHT22;4095;48.942;9.104;2022-07-05T16:00:58;27.60;62.30
8105;DHT22;4095;48.942;9.104;2022-07-05T16:03:28;27.60;62.70
8105;DHT22;4095;48.942;9.104;2022-07-05T16:05:55;27.60;62.30
8105;DHT22;4095;48.942;9.104;2022-07-05T16:08:22;27.60;61.60
8105;DHT22;4095;48.942;9.104;2022-07-05T16:10:48;27.60;62.00
8105;DHT22;4095;48.942;9.104;2022-07-05T16:13:14;27.60;60.40
8105;DHT22;4095;48.942;9.104;2022-07-05T16:15:43;27.60;62.10
8105;DHT22;4095;48.942;9.104;2022-07-05T16:18:27;27.60;61.70
8105;DHT22;4095;48.942;9.104;2022-07-05T16:20:53;27.60;62.90